Mesa, Arizona
Current Conditions -  °F | °C
As of 4:47 PM on Saturday 25 Oct 2014 (Local Time) from KFFZ Reporting Station
Few Clouds Few Clouds  
Wind Chill: 34°   Ceiling: Unl
Heat Index: 34°   Visibility: 30mi
Dew Point: 10°   Wind: 7mph
Humidity: 23%   Direction: 280°W
Pressure: 29.91"   Gusts: NA
Location:  33.42°N, 111.83°W
Report Text: KFFZ 252347Z 28006KT 30SM FEW180 34/10 A2991
Loading
Personal Weather Stations






























Interactive Weather Map
Tropical Storm Tracking
New forecast layout! Learn more

10-Day Weather Forecast

Advertisements
Track Severe Weather on mobile